Time;durP1;ratioP1;P1;durP2;ratioP2;P2;SDS_P1;SDS_P2;PMS_P1;PMS_P2;Temp;Humidity;BMP_temperature;BMP_pressure;BME280_temperature;BME280_humidity;BME280_pressure;Samples;Min_cycle;Max_cycle;Signal;HPM_P1;HPM_P2
2023/03/24 00:01:44;;;;;;;2.15;1.70;;;;;;;;;;8312425;28;20048;-66
2023/03/24 00:05:44;;;;;;;2.70;1.90;;;;;;;;;;8312339;28;20630;-65
2023/03/24 00:09:44;;;;;;;2.83;2.00;;;;;;;;;;8311143;28;20057;-65
2023/03/24 00:13:46;;;;;;;3.47;2.38;;;;;;;;;;8311825;28;20036;-65
2023/03/24 00:17:49;;;;;;;4.18;2.10;;;;;;;;;;8312277;28;20048;-65
2023/03/24 00:21:49;;;;;;;4.05;2.40;;;;;;;;;;8312240;28;20021;-65
2023/03/24 00:25:57;;;;;;;2.75;2.20;;;;;;;;;;8311970;28;20048;-65
2023/03/24 00:29:58;;;;;;;3.55;2.42;;;;;;;;;;8310087;28;20486;-64
2023/03/24 00:34:01;;;;;;;4.78;2.72;;;;;;;;;;8312390;28;20555;-65
2023/03/24 00:38:01;;;;;;;6.05;3.10;;;;;;;;;;8310239;28;20104;-65
2023/03/24 00:42:02;;;;;;;5.32;3.58;;;;;;;;;;8310327;28;20049;-64
2023/03/24 00:46:05;;;;;;;5.10;3.47;;;;;;;;;;8312342;28;20037;-65
2023/03/24 00:50:07;;;;;;;5.30;3.70;;;;;;;;;;8311678;28;20029;-65
2023/03/24 00:54:08;;;;;;;5.85;3.60;;;;;;;;;;8309918;28;20072;-65
2023/03/24 00:58:08;;;;;;;4.82;3.20;;;;;;;;;;8311069;28;20040;-64
2023/03/24 01:02:11;;;;;;;5.83;3.30;;;;;;;;;;8308460;28;20080;-65
2023/03/24 01:06:12;;;;;;;3.53;2.95;;;;;;;;;;8311273;28;20750;-64
2023/03/24 01:10:13;;;;;;;8.20;2.70;;;;;;;;;;8311462;28;20149;-65
2023/03/24 01:14:13;;;;;;;3.42;2.65;;;;;;;;;;8311082;28;20044;-65
2023/03/24 01:18:14;;;;;;;5.20;2.40;;;;;;;;;;8310688;28;20040;-65
2023/03/24 01:22:15;;;;;;;7.35;3.22;;;;;;;;;;8310092;28;20056;-64
2023/03/24 01:26:15;;;;;;;4.53;3.08;;;;;;;;;;8312072;28;20051;-64
2023/03/24 01:30:17;;;;;;;4.35;2.63;;;;;;;;;;8307105;28;20028;-65
2023/03/24 01:34:17;;;;;;;3.78;2.80;;;;;;;;;;8309341;28;20026;-65
2023/03/24 01:38:17;;;;;;;4.63;2.72;;;;;;;;;;8308290;28;20140;-65
2023/03/24 01:42:19;;;;;;;4.77;3.93;;;;;;;;;;8307942;28;20029;-65
2023/03/24 01:46:20;;;;;;;3.97;3.40;;;;;;;;;;8309507;28;20044;-65
2023/03/24 01:50:20;;;;;;;4.30;3.22;;;;;;;;;;8307595;28;20403;-65
2023/03/24 01:54:26;;;;;;;3.80;3.40;;;;;;;;;;8308421;28;20032;-65
2023/03/24 01:58:28;;;;;;;3.85;3.50;;;;;;;;;;8308669;28;20341;-65
2023/03/24 02:02:28;;;;;;;6.82;3.88;;;;;;;;;;8307354;28;20157;-65
2023/03/24 02:06:31;;;;;;;5.45;3.83;;;;;;;;;;8309106;28;20025;-65
2023/03/24 02:10:32;;;;;;;4.47;3.47;;;;;;;;;;8307895;28;20728;-65
2023/03/24 02:14:33;;;;;;;3.55;3.13;;;;;;;;;;8313549;28;20428;-64
2023/03/24 02:18:33;;;;;;;3.50;3.20;;;;;;;;;;8311349;28;20102;-65
2023/03/24 02:22:48;;;;;;;5.78;3.40;;;;;;;;;;8314936;28;20105;-65
2023/03/24 02:26:54;;;;;;;4.93;3.20;;;;;;;;;;8313924;28;20067;-65
2023/03/24 02:30:55;;;;;;;5.15;3.30;;;;;;;;;;8310889;28;20091;-65
2023/03/24 02:35:14;;;;;;;7.82;3.40;;;;;;;;;;8315305;28;20091;-65
2023/03/24 02:39:21;;;;;;;4.90;3.53;;;;;;;;;;8316323;28;20875;-65
2023/03/24 02:43:35;;;;;;;4.10;3.30;;;;;;;;;;8316120;28;20026;-65
2023/03/24 02:47:47;;;;;;;3.53;3.22;;;;;;;;;;8315579;28;20049;-65
2023/03/24 02:51:59;;;;;;;5.78;3.47;;;;;;;;;;8314563;28;20814;-65
2023/03/24 02:56:00;;;;;;;5.20;3.67;;;;;;;;;;8312255;28;20832;-65
2023/03/24 03:00:17;;;;;;;5.50;3.40;;;;;;;;;;8314078;28;20025;-65
2023/03/24 03:04:21;;;;;;;3.95;3.42;;;;;;;;;;8317294;28;20494;-65
2023/03/24 03:08:22;;;;;;;4.90;3.67;;;;;;;;;;8313881;28;20035;-65
2023/03/24 03:12:24;;;;;;;4.63;3.55;;;;;;;;;;8313066;28;20033;-65
2023/03/24 03:16:33;;;;;;;3.92;3.15;;;;;;;;;;8313220;28;20490;-65
2023/03/24 03:20:37;;;;;;;8.48;4.00;;;;;;;;;;8314202;28;20928;-65
2023/03/24 03:24:40;;;;;;;7.65;4.25;;;;;;;;;;8304396;28;20083;-65
2023/03/24 03:28:48;;;;;;;6.78;4.63;;;;;;;;;;8298871;28;20028;-65
2023/03/24 03:32:52;;;;;;;5.38;3.95;;;;;;;;;;8313536;28;20036;-64
2023/03/24 03:36:55;;;;;;;5.10;4.30;;;;;;;;;;8311713;28;20100;-65
2023/03/24 03:40:58;;;;;;;7.57;4.80;;;;;;;;;;8315063;28;20037;-65
2023/03/24 03:44:58;;;;;;;6.88;4.90;;;;;;;;;;8313902;28;20056;-65
2023/03/24 03:48:58;;;;;;;6.72;5.35;;;;;;;;;;8311590;28;20881;-64
2023/03/24 03:52:59;;;;;;;6.67;5.50;;;;;;;;;;8311298;28;20053;-65
2023/03/24 03:57:00;;;;;;;7.93;5.93;;;;;;;;;;8313601;28;20363;-65
2023/03/24 04:01:02;;;;;;;8.45;6.00;;;;;;;;;;8313571;28;20041;-65
2023/03/24 04:05:18;;;;;;;6.50;5.82;;;;;;;;;;8314507;28;20120;-65
2023/03/24 04:09:33;;;;;;;5.75;5.18;;;;;;;;;;8314493;28;20501;-65
2023/03/24 04:13:43;;;;;;;6.85;5.90;;;;;;;;;;8313475;28;20498;-65
2023/03/24 04:18:03;;;;;;;6.45;5.78;;;;;;;;;;8313041;28;20148;-65
2023/03/24 04:22:09;;;;;;;9.55;6.13;;;;;;;;;;8311838;28;20040;-65
2023/03/24 04:26:25;;;;;;;7.20;5.70;;;;;;;;;;8311955;28;20476;-65
2023/03/24 04:30:38;;;;;;;6.18;5.57;;;;;;;;;;8309588;28;20033;-65
2023/03/24 04:34:45;;;;;;;6.45;5.80;;;;;;;;;;8310731;28;20052;-65
2023/03/24 04:38:47;;;;;;;6.32;5.15;;;;;;;;;;8313878;28;20570;-65
2023/03/24 04:42:51;;;;;;;4.85;4.13;;;;;;;;;;8309071;28;20539;-65
2023/03/24 04:46:53;;;;;;;6.22;4.10;;;;;;;;;;8310653;28;20041;-65
2023/03/24 04:50:55;;;;;;;4.90;3.65;;;;;;;;;;8311955;28;20095;-66
2023/03/24 04:54:56;;;;;;;3.38;2.60;;;;;;;;;;8310287;28;20037;-65
2023/03/24 04:58:57;;;;;;;2.47;2.28;;;;;;;;;;8312006;28;20777;-65
2023/03/24 05:02:57;;;;;;;3.38;2.60;;;;;;;;;;8309842;28;20778;-66
2023/03/24 05:06:57;;;;;;;3.08;2.38;;;;;;;;;;8312483;28;20131;-66
2023/03/24 05:10:58;;;;;;;2.40;2.20;;;;;;;;;;8312458;28;20056;-65
2023/03/24 05:14:58;;;;;;;3.67;2.70;;;;;;;;;;8312479;28;20025;-65
2023/03/24 05:18:58;;;;;;;3.47;3.17;;;;;;;;;;8310566;28;20037;-65
2023/03/24 05:22:58;;;;;;;4.10;3.42;;;;;;;;;;8311280;28;20052;-65
2023/03/24 05:26:58;;;;;;;4.20;3.80;;;;;;;;;;8310384;28;20021;-65
2023/03/24 05:31:00;;;;;;;5.20;3.58;;;;;;;;;;8310573;28;20033;-65
2023/03/24 05:35:00;;;;;;;3.92;3.53;;;;;;;;;;8309796;28;20029;-66
2023/03/24 05:39:00;;;;;;;4.20;3.80;;;;;;;;;;8311052;28;20029;-65
2023/03/24 05:43:01;;;;;;;4.13;3.45;;;;;;;;;;8309398;28;20017;-65
2023/03/24 05:47:01;;;;;;;4.78;4.13;;;;;;;;;;8311349;28;20437;-65
2023/03/24 05:51:01;;;;;;;3.83;3.42;;;;;;;;;;8312219;28;20017;-66
2023/03/24 05:55:01;;;;;;;6.07;4.00;;;;;;;;;;8312095;28;21006;-65
2023/03/24 05:59:02;;;;;;;7.35;3.65;;;;;;;;;;8315041;28;20106;-66
2023/03/24 06:03:03;;;;;;;3.50;3.13;;;;;;;;;;8315369;28;20037;-65
2023/03/24 06:07:03;;;;;;;4.10;3.10;;;;;;;;;;8316945;28;20021;-66
2023/03/24 06:11:04;;;;;;;4.50;2.90;;;;;;;;;;8313935;28;20264;-66
2023/03/24 06:15:04;;;;;;;2.80;2.60;;;;;;;;;;8315701;28;20032;-65
2023/03/24 06:19:05;;;;;;;3.15;2.50;;;;;;;;;;8312603;28;20017;-65
2023/03/24 06:23:05;;;;;;;2.92;2.30;;;;;;;;;;8313257;28;20672;-66
2023/03/24 06:27:07;;;;;;;3.17;2.60;;;;;;;;;;8314382;28;20025;-65
2023/03/24 06:31:13;;;;;;;3.20;2.55;;;;;;;;;;8314227;28;20049;-66
2023/03/24 06:35:14;;;;;;;3.88;2.58;;;;;;;;;;8314989;28;20017;-65
2023/03/24 06:39:14;;;;;;;4.00;2.60;;;;;;;;;;8315413;28;20064;-65
2023/03/24 06:43:15;;;;;;;3.20;2.90;;;;;;;;;;8316138;28;20162;-65
2023/03/24 06:47:15;;;;;;;2.97;2.77;;;;;;;;;;8316883;28;20034;-65
2023/03/24 06:51:16;;;;;;;3.65;2.95;;;;;;;;;;8314430;28;20279;-65
2023/03/24 06:55:16;;;;;;;3.83;2.90;;;;;;;;;;8315069;28;20044;-66
2023/03/24 06:59:16;;;;;;;3.35;2.70;;;;;;;;;;8313194;28;20943;-66
2023/03/24 07:03:16;;;;;;;5.68;2.78;;;;;;;;;;8314671;28;20079;-65
2023/03/24 07:07:17;;;;;;;2.70;2.50;;;;;;;;;;8301873;28;20040;-65
2023/03/24 07:11:17;;;;;;;3.33;2.50;;;;;;;;;;8305844;28;20528;-65
2023/03/24 07:15:17;;;;;;;4.25;3.00;;;;;;;;;;8305810;28;20262;-66
2023/03/24 07:19:18;;;;;;;4.35;2.35;;;;;;;;;;8305982;28;20075;-65
2023/03/24 07:23:18;;;;;;;2.75;2.22;;;;;;;;;;8308215;28;20052;-65
2023/03/24 07:27:18;;;;;;;3.15;2.40;;;;;;;;;;8306650;28;20370;-65
2023/03/24 07:31:19;;;;;;;2.50;2.30;;;;;;;;;;8303998;28;20034;-66
2023/03/24 07:35:19;;;;;;;2.90;2.70;;;;;;;;;;8302802;28;20025;-65
2023/03/24 07:39:19;;;;;;;3.45;2.67;;;;;;;;;;8302624;28;20026;-65
2023/03/24 07:43:20;;;;;;;2.30;2.10;;;;;;;;;;8302320;28;20040;-65
2023/03/24 07:47:20;;;;;;;2.55;2.35;;;;;;;;;;8304750;28;20537;-66
2023/03/24 07:51:21;;;;;;;2.53;2.33;;;;;;;;;;8303665;28;20266;-65
2023/03/24 07:55:21;;;;;;;2.95;2.28;;;;;;;;;;8303916;28;20024;-66
2023/03/24 07:59:21;;;;;;;2.50;2.30;;;;;;;;;;8302634;28;20067;-66
2023/03/24 08:03:26;;;;;;;2.53;2.33;;;;;;;;;;8304630;28;20069;-65
2023/03/24 08:07:26;;;;;;;2.50;2.30;;;;;;;;;;8303437;28;20025;-65
2023/03/24 08:11:27;;;;;;;2.97;2.13;;;;;;;;;;8303736;28;20729;-65
2023/03/24 08:15:27;;;;;;;3.55;2.60;;;;;;;;;;8303196;28;20473;-65
2023/03/24 08:19:27;;;;;;;3.42;2.67;;;;;;;;;;8302626;28;20027;-65
2023/03/24 08:23:27;;;;;;;3.50;2.30;;;;;;;;;;8302026;28;20251;-65
2023/03/24 08:27:28;;;;;;;2.30;2.10;;;;;;;;;;8302619;28;20600;-65
2023/03/24 08:31:34;;;;;;;2.28;1.95;;;;;;;;;;8303584;28;20743;-65
2023/03/24 08:35:38;;;;;;;2.17;1.98;;;;;;;;;;8301602;28;20025;-65
2023/03/24 08:39:38;;;;;;;3.92;2.60;;;;;;;;;;8303150;28;20096;-66
2023/03/24 08:43:39;;;;;;;2.45;2.20;;;;;;;;;;8302939;28;20031;-65
2023/03/24 08:47:40;;;;;;;2.70;1.90;;;;;;;;;;8309849;28;20064;-65
2023/03/24 08:51:40;;;;;;;1.90;1.80;;;;;;;;;;8309867;28;20129;-66
2023/03/24 08:55:43;;;;;;;2.00;1.80;;;;;;;;;;8294992;28;20017;-67
2023/03/24 08:59:45;;;;;;;1.70;1.60;;;;;;;;;;8312028;28;20078;-65
2023/03/24 09:03:45;;;;;;;1.48;1.38;;;;;;;;;;8311183;28;20155;-66
2023/03/24 09:07:46;;;;;;;1.52;1.42;;;;;;;;;;8310081;28;20029;-65
2023/03/24 09:11:47;;;;;;;1.90;1.80;;;;;;;;;;8310264;28;20028;-65
2023/03/24 09:15:52;;;;;;;1.70;1.60;;;;;;;;;;8306001;28;20505;-66
2023/03/24 09:19:52;;;;;;;3.92;1.60;;;;;;;;;;8301042;28;20032;-65
2023/03/24 09:23:52;;;;;;;2.80;1.90;;;;;;;;;;8314949;28;20033;-65
2023/03/24 09:27:52;;;;;;;2.75;2.25;;;;;;;;;;8311736;28;20279;-66
2023/03/24 09:31:52;;;;;;;2.40;2.20;;;;;;;;;;8310776;28;20033;-66
2023/03/24 09:35:54;;;;;;;2.08;1.80;;;;;;;;;;8314983;28;20024;-66
2023/03/24 09:39:54;;;;;;;1.98;1.88;;;;;;;;;;8304184;28;20484;-66
2023/03/24 09:43:59;;;;;;;3.28;2.17;;;;;;;;;;8309486;28;20179;-66
2023/03/24 09:48:02;;;;;;;1.95;1.75;;;;;;;;;;8291419;28;20037;-65
2023/03/24 09:52:13;;;;;;;5.18;1.10;;;;;;;;;;8307395;28;20516;-65
2023/03/24 09:56:15;;;;;;;1.23;0.90;;;;;;;;;;8292344;28;20025;-65
2023/03/24 10:00:18;;;;;;;3.28;1.05;;;;;;;;;;8308792;28;20025;-65
2023/03/24 10:04:20;;;;;;;1.07;0.90;;;;;;;;;;8311513;28;20033;-65
2023/03/24 10:08:20;;;;;;;0.98;0.80;;;;;;;;;;8314739;28;20585;-65
2023/03/24 10:12:34;;;;;;;0.70;0.70;;;;;;;;;;8308599;28;20075;-65
2023/03/24 10:16:34;;;;;;;1.10;1.00;;;;;;;;;;8308402;28;20349;-66
2023/03/24 10:20:38;;;;;;;1.17;0.75;;;;;;;;;;8308206;28;20067;-65
2023/03/24 10:24:43;;;;;;;1.27;0.80;;;;;;;;;;8310617;28;20482;-65
2023/03/24 10:28:48;;;;;;;0.77;0.65;;;;;;;;;;8309237;28;20416;-65
2023/03/24 10:32:49;;;;;;;1.10;0.77;;;;;;;;;;8308767;28;20074;-65
2023/03/24 10:36:51;;;;;;;1.02;0.60;;;;;;;;;;8305754;28;20066;-66
2023/03/24 10:40:52;;;;;;;3.05;0.82;;;;;;;;;;8305607;28;20540;-65
2023/03/24 10:44:52;;;;;;;1.95;0.77;;;;;;;;;;8305689;28;20025;-65
2023/03/24 10:49:17;;;;;;;0.93;0.70;;;;;;;;;;8306064;28;20086;-65
2023/03/24 10:53:18;;;;;;;1.95;0.82;;;;;;;;;;8297665;28;20850;-66
2023/03/24 10:57:19;;;;;;;3.10;0.98;;;;;;;;;;8311462;28;20030;-66
2023/03/24 11:01:29;;;;;;;1.23;0.80;;;;;;;;;;8313611;28;20072;-66
2023/03/24 11:05:32;;;;;;;1.02;0.80;;;;;;;;;;8307934;28;20044;-66
2023/03/24 11:09:39;;;;;;;2.50;0.90;;;;;;;;;;8312501;28;20028;-65
2023/03/24 11:13:39;;;;;;;2.05;0.90;;;;;;;;;;8315351;28;20690;-65
2023/03/24 11:17:41;;;;;;;6.97;1.33;;;;;;;;;;8311828;28;20029;-66
2023/03/24 11:21:41;;;;;;;2.90;0.98;;;;;;;;;;8303448;28;20352;-66
2023/03/24 11:25:42;;;;;;;4.47;1.25;;;;;;;;;;8307418;28;20531;-66
2023/03/24 11:29:44;;;;;;;4.60;1.00;;;;;;;;;;8306865;28;20039;-66
2023/03/24 11:33:48;;;;;;;3.67;1.20;;;;;;;;;;8305144;28;20094;-66
2023/03/24 11:37:49;;;;;;;4.00;0.98;;;;;;;;;;8305754;28;20052;-66
2023/03/24 11:41:51;;;;;;;3.33;1.38;;;;;;;;;;8305932;28;20651;-67
2023/03/24 11:46:00;;;;;;;3.20;1.00;;;;;;;;;;8304564;28;20041;-66
2023/03/24 11:50:12;;;;;;;3.47;1.02;;;;;;;;;;8303298;28;20514;-66
2023/03/24 11:54:13;;;;;;;5.25;1.33;;;;;;;;;;8306446;28;20025;-66
2023/03/24 11:58:49;;;;;;;3.35;1.40;;;;;;;;;;8304577;28;20026;-66
2023/03/24 12:03:00;;;;;;;3.33;1.50;;;;;;;;;;8185522;28;20398;-66
2023/03/24 12:07:23;;;;;;;2.95;1.30;;;;;;;;;;8307024;28;20025;-66
2023/03/24 12:11:24;;;;;;;3.72;1.23;;;;;;;;;;8304952;28;20040;-67
2023/03/24 12:15:36;;;;;;;9.00;1.23;;;;;;;;;;8305912;28;20044;-66
2023/03/24 12:19:55;;;;;;;2.03;1.30;;;;;;;;;;8305559;28;20021;-66
2023/03/24 12:23:55;;;;;;;8.15;1.35;;;;;;;;;;8304641;28;20017;-66
2023/03/24 12:28:08;;;;;;;4.28;1.20;;;;;;;;;;8312754;28;20163;-66
2023/03/24 12:32:27;;;;;;;7.05;1.27;;;;;;;;;;8310073;28;20068;-66
2023/03/24 12:36:30;;;;;;;4.65;1.30;;;;;;;;;;8307278;28;20076;-65
2023/03/24 12:40:44;;;;;;;6.53;1.67;;;;;;;;;;8302148;28;20028;-66
2023/03/24 12:44:56;;;;;;;8.95;1.30;;;;;;;;;;8303889;28;20072;-67
2023/03/24 12:49:02;;;;;;;7.50;1.40;;;;;;;;;;8301813;28;20619;-66
2023/03/24 12:53:05;;;;;;;6.80;1.50;;;;;;;;;;8296446;28;20029;-66
2023/03/24 12:57:10;;;;;;;5.15;1.08;;;;;;;;;;8298757;28;20167;-66
2023/03/24 13:01:18;;;;;;;10.52;1.40;;;;;;;;;;8300679;28;20049;-65
2023/03/24 13:05:21;;;;;;;3.08;1.20;;;;;;;;;;8302985;28;20025;-66
2023/03/24 13:09:30;;;;;;;5.63;1.50;;;;;;;;;;8306918;28;20159;-66
2023/03/24 13:13:33;;;;;;;2.40;1.00;;;;;;;;;;8310370;28;20059;-66
2023/03/24 13:17:42;;;;;;;5.60;1.42;;;;;;;;;;8306876;28;20033;-66
2023/03/24 13:21:42;;;;;;;4.57;1.00;;;;;;;;;;8311942;28;20848;-66
2023/03/24 13:25:49;;;;;;;2.78;1.20;;;;;;;;;;8312089;28;20149;-66
2023/03/24 13:29:52;;;;;;;3.03;0.90;;;;;;;;;;8306778;28;20703;-66
2023/03/24 13:33:53;;;;;;;5.20;1.40;;;;;;;;;;8309782;28;20037;-66
2023/03/24 13:37:58;;;;;;;6.78;1.20;;;;;;;;;;8311601;28;20057;-66
2023/03/24 13:41:59;;;;;;;5.80;1.42;;;;;;;;;;8308612;28;20110;-66
2023/03/24 13:45:59;;;;;;;3.65;1.30;;;;;;;;;;8310269;28;20045;-66
2023/03/24 13:50:01;;;;;;;5.07;1.00;;;;;;;;;;8307839;28;20103;-67
2023/03/24 13:54:15;;;;;;;6.43;1.20;;;;;;;;;;8310258;28;20599;-66
2023/03/24 13:58:21;;;;;;;2.85;1.00;;;;;;;;;;8311151;28;20025;-66
2023/03/24 14:02:24;;;;;;;2.28;0.90;;;;;;;;;;8309399;28;20733;-66
2023/03/24 14:06:42;;;;;;;2.88;1.25;;;;;;;;;;8309218;28;20088;-67
2023/03/24 14:10:43;;;;;;;3.20;1.27;;;;;;;;;;8316640;28;20513;-66
2023/03/24 14:15:07;;;;;;;6.00;1.17;;;;;;;;;;8316130;28;20032;-66
2023/03/24 14:19:08;;;;;;;3.85;1.10;;;;;;;;;;8314573;28;20055;-66
2023/03/24 14:23:21;;;;;;;3.30;1.27;;;;;;;;;;8315374;28;20045;-66
2023/03/24 14:27:22;;;;;;;3.15;1.20;;;;;;;;;;8316402;28;20108;-66
2023/03/24 14:31:32;;;;;;;2.45;1.00;;;;;;;;;;8312269;28;20048;-65
2023/03/24 14:35:43;;;;;;;3.97;1.15;;;;;;;;;;8313005;28;20147;-65
2023/03/24 14:39:47;;;;;;;4.50;1.20;;;;;;;;;;8306555;28;20108;-65
2023/03/24 14:43:47;;;;;;;5.90;1.40;;;;;;;;;;8308320;28;20021;-66
2023/03/24 14:47:56;;;;;;;4.10;1.17;;;;;;;;;;8306284;28;20041;-65
2023/03/24 14:52:02;;;;;;;6.18;1.40;;;;;;;;;;8308923;28;20981;-66
2023/03/24 14:56:03;;;;;;;6.28;1.10;;;;;;;;;;8312567;28;20428;-65
2023/03/24 15:00:18;;;;;;;4.13;1.20;;;;;;;;;;8311831;28;20025;-65
2023/03/24 15:04:19;;;;;;;4.50;1.10;;;;;;;;;;8312301;28;20032;-65
2023/03/24 15:08:21;;;;;;;2.97;1.00;;;;;;;;;;8306668;28;20342;-65
2023/03/24 15:12:21;;;;;;;8.18;1.45;;;;;;;;;;8304070;28;20432;-65
2023/03/24 15:16:22;;;;;;;3.28;1.17;;;;;;;;;;8307140;28;20116;-65
2023/03/24 15:20:24;;;;;;;7.18;1.10;;;;;;;;;;8304515;28;20033;-65
2023/03/24 15:24:26;;;;;;;6.43;1.25;;;;;;;;;;8305385;28;20112;-65
2023/03/24 15:28:28;;;;;;;4.72;0.95;;;;;;;;;;8306560;28;20588;-65
2023/03/24 15:32:37;;;;;;;6.53;1.20;;;;;;;;;;8299137;28;20041;-65
2023/03/24 15:36:38;;;;;;;8.10;1.40;;;;;;;;;;8306098;28;20418;-65
2023/03/24 15:40:39;;;;;;;7.72;1.35;;;;;;;;;;8304435;28;20029;-65
2023/03/24 15:44:40;;;;;;;4.43;1.42;;;;;;;;;;8306035;28;20530;-65
2023/03/24 15:48:40;;;;;;;6.72;1.38;;;;;;;;;;8298917;28;20064;-65
2023/03/24 15:52:40;;;;;;;5.43;2.00;;;;;;;;;;8301853;28;20029;-65
2023/03/24 15:56:40;;;;;;;4.43;1.40;;;;;;;;;;8305238;28;20025;-65
2023/03/24 16:00:41;;;;;;;5.23;1.13;;;;;;;;;;8310698;28;20831;-65
2023/03/24 16:04:41;;;;;;;11.25;1.50;;;;;;;;;;8300522;28;20834;-67
2023/03/24 16:08:42;;;;;;;6.17;1.60;;;;;;;;;;8310582;28;20028;-65
2023/03/24 16:12:42;;;;;;;4.18;1.25;;;;;;;;;;8303766;28;21221;-65
2023/03/24 16:16:43;;;;;;;5.60;1.25;;;;;;;;;;8310022;28;20084;-65
2023/03/24 16:20:43;;;;;;;5.63;1.30;;;;;;;;;;8308333;28;20491;-64
2023/03/24 16:24:43;;;;;;;6.10;1.35;;;;;;;;;;8310071;28;20148;-65
2023/03/24 16:28:44;;;;;;;4.20;1.13;;;;;;;;;;8308863;28;20082;-67
2023/03/24 16:32:44;;;;;;;3.30;1.30;;;;;;;;;;8308150;28;20370;-65
2023/03/24 16:36:47;;;;;;;3.08;1.02;;;;;;;;;;8308006;28;20073;-65
2023/03/24 16:40:49;;;;;;;2.97;1.63;;;;;;;;;;8309701;28;20060;-65
2023/03/24 16:44:49;;;;;;;5.15;1.20;;;;;;;;;;8310832;28;20029;-65
2023/03/24 16:48:49;;;;;;;4.57;1.30;;;;;;;;;;8310031;28;20125;-65
2023/03/24 16:52:49;;;;;;;4.72;1.25;;;;;;;;;;8308506;28;20020;-65
2023/03/24 16:56:50;;;;;;;5.70;1.27;;;;;;;;;;8292607;28;20493;-65
2023/03/24 17:00:50;;;;;;;4.97;1.25;;;;;;;;;;8307613;28;20029;-66
2023/03/24 17:04:51;;;;;;;6.13;1.38;;;;;;;;;;8309817;28;20148;-66
2023/03/24 17:08:52;;;;;;;4.75;1.45;;;;;;;;;;8303209;28;20025;-65
2023/03/24 17:12:53;;;;;;;7.20;1.20;;;;;;;;;;8301427;28;20130;-65
2023/03/24 17:16:54;;;;;;;6.85;1.33;;;;;;;;;;8303133;28;20129;-65
2023/03/24 17:20:54;;;;;;;3.70;1.20;;;;;;;;;;8299435;28;20036;-65
2023/03/24 17:24:57;;;;;;;6.05;1.30;;;;;;;;;;8299982;28;20131;-65
2023/03/24 17:28:57;;;;;;;4.35;1.40;;;;;;;;;;8297797;28;20032;-65
2023/03/24 17:32:57;;;;;;;6.88;1.48;;;;;;;;;;8300504;28;20041;-64
2023/03/24 17:36:57;;;;;;;4.65;1.33;;;;;;;;;;8301624;28;20553;-65
2023/03/24 17:41:01;;;;;;;9.35;1.50;;;;;;;;;;8302558;28;20028;-65
2023/03/24 17:45:02;;;;;;;5.95;1.15;;;;;;;;;;8307775;28;20020;-66
2023/03/24 17:49:03;;;;;;;3.58;1.00;;;;;;;;;;8308202;28;20045;-65
2023/03/24 17:53:03;;;;;;;4.65;1.13;;;;;;;;;;8309949;28;20531;-65
2023/03/24 17:57:03;;;;;;;4.88;1.30;;;;;;;;;;8309734;28;20119;-65
2023/03/24 18:01:07;;;;;;;5.68;1.20;;;;;;;;;;8311056;28;20028;-65
2023/03/24 18:05:07;;;;;;;3.25;1.08;;;;;;;;;;8308771;28;20036;-64
2023/03/24 18:09:08;;;;;;;7.88;1.30;;;;;;;;;;8309503;28;20537;-64
2023/03/24 18:13:08;;;;;;;5.18;1.20;;;;;;;;;;8310600;28;20447;-65
2023/03/24 18:17:09;;;;;;;3.35;1.15;;;;;;;;;;8310272;28;20057;-65
2023/03/24 18:21:09;;;;;;;4.85;1.20;;;;;;;;;;8309051;28;20040;-65
2023/03/24 18:25:11;;;;;;;5.43;1.20;;;;;;;;;;8309410;28;20060;-64
2023/03/24 18:29:11;;;;;;;6.82;1.30;;;;;;;;;;8307486;28;20167;-65
2023/03/24 18:33:14;;;;;;;4.13;1.50;;;;;;;;;;8308856;28;20048;-64
2023/03/24 18:37:14;;;;;;;5.40;1.38;;;;;;;;;;8309164;28;20549;-64
2023/03/24 18:41:16;;;;;;;6.07;1.15;;;;;;;;;;8307419;28;20222;-64
2023/03/24 18:45:17;;;;;;;5.65;1.30;;;;;;;;;;8307571;28;20071;-64
2023/03/24 18:49:17;;;;;;;3.15;1.25;;;;;;;;;;8309057;28;21005;-64
2023/03/24 18:53:18;;;;;;;5.05;1.10;;;;;;;;;;8308616;28;20620;-64
2023/03/24 18:57:19;;;;;;;6.97;1.73;;;;;;;;;;8305714;28;20144;-64
2023/03/24 19:01:21;;;;;;;6.28;1.08;;;;;;;;;;8306180;28;20520;-65
2023/03/24 19:05:21;;;;;;;2.75;0.85;;;;;;;;;;8307568;28;20450;-63
2023/03/24 19:09:21;;;;;;;2.83;0.80;;;;;;;;;;8308011;28;20106;-63
2023/03/24 19:13:22;;;;;;;1.15;0.60;;;;;;;;;;8307676;28;20118;-63
2023/03/24 19:17:22;;;;;;;0.73;0.50;;;;;;;;;;8307946;28;20075;-64
2023/03/24 19:21:23;;;;;;;3.35;0.60;;;;;;;;;;8307675;28;20290;-63
2023/03/24 19:25:23;;;;;;;3.03;0.95;;;;;;;;;;8306737;28;20083;-63
2023/03/24 19:29:23;;;;;;;0.70;0.60;;;;;;;;;;8308081;28;20035;-64
2023/03/24 19:33:24;;;;;;;2.20;0.70;;;;;;;;;;8307901;28;20641;-63
2023/03/24 19:37:25;;;;;;;0.93;0.50;;;;;;;;;;8308901;28;20025;-64
2023/03/24 19:41:26;;;;;;;0.52;0.40;;;;;;;;;;8305980;28;20029;-64
2023/03/24 19:45:26;;;;;;;3.65;0.82;;;;;;;;;;8308701;28;20462;-64
2023/03/24 19:49:26;;;;;;;1.75;0.75;;;;;;;;;;8306060;28;20066;-64
2023/03/24 19:53:27;;;;;;;3.42;0.80;;;;;;;;;;8306862;28;20484;-64
2023/03/24 19:57:29;;;;;;;2.30;0.90;;;;;;;;;;8305964;28;20103;-65
2023/03/24 20:01:33;;;;;;;2.35;0.80;;;;;;;;;;8306179;28;20545;-64
2023/03/24 20:05:33;;;;;;;2.13;0.80;;;;;;;;;;8306744;28;20121;-64
2023/03/24 20:09:34;;;;;;;1.80;0.70;;;;;;;;;;8304505;28;20026;-64
2023/03/24 20:13:34;;;;;;;3.90;0.70;;;;;;;;;;8298390;28;20110;-64
2023/03/24 20:17:36;;;;;;;0.70;0.60;;;;;;;;;;8303177;28;20038;-64
2023/03/24 20:21:36;;;;;;;1.50;0.65;;;;;;;;;;8305403;28;20404;-64
2023/03/24 20:25:40;;;;;;;4.00;1.00;;;;;;;;;;8305892;28;20451;-63
2023/03/24 20:29:40;;;;;;;3.13;0.95;;;;;;;;;;8303609;28;20012;-63
2023/03/24 20:33:40;;;;;;;2.00;0.88;;;;;;;;;;8305256;28;20076;-63
2023/03/24 20:37:41;;;;;;;2.65;0.85;;;;;;;;;;8303898;28;20025;-64
2023/03/24 20:41:41;;;;;;;3.60;1.17;;;;;;;;;;8305000;28;20026;-64
2023/03/24 20:45:41;;;;;;;1.35;0.70;;;;;;;;;;8304422;28;20518;-64
2023/03/24 20:49:42;;;;;;;1.80;0.82;;;;;;;;;;8305211;28;20172;-65
2023/03/24 20:53:43;;;;;;;1.05;0.80;;;;;;;;;;8305363;28;20029;-65
2023/03/24 20:57:43;;;;;;;3.03;1.00;;;;;;;;;;8304206;28;20513;-64
2023/03/24 21:01:47;;;;;;;2.90;0.90;;;;;;;;;;8305408;28;20036;-64
2023/03/24 21:05:47;;;;;;;2.42;0.90;;;;;;;;;;8304376;28;20473;-64
2023/03/24 21:09:47;;;;;;;3.72;0.90;;;;;;;;;;8304828;28;20377;-64
2023/03/24 21:13:47;;;;;;;1.33;0.90;;;;;;;;;;8303617;28;20048;-64
2023/03/24 21:17:48;;;;;;;3.80;0.77;;;;;;;;;;8302737;28;20098;-64
2023/03/24 21:21:48;;;;;;;6.65;1.33;;;;;;;;;;8303629;28;20098;-63
2023/03/24 21:25:49;;;;;;;5.60;1.50;;;;;;;;;;8302861;28;20022;-64
2023/03/24 21:29:49;;;;;;;3.03;1.00;;;;;;;;;;8303046;28;20028;-64
2023/03/24 21:33:50;;;;;;;3.00;1.05;;;;;;;;;;8303931;28;20041;-63
2023/03/24 21:37:52;;;;;;;4.47;1.45;;;;;;;;;;8303371;28;20035;-63
2023/03/24 21:41:53;;;;;;;5.45;1.23;;;;;;;;;;8304739;28;20028;-64
2023/03/24 21:45:54;;;;;;;3.42;1.00;;;;;;;;;;8302865;28;20044;-64
2023/03/24 21:49:57;;;;;;;4.22;0.98;;;;;;;;;;8304090;28;20417;-63
2023/03/24 21:54:02;;;;;;;2.22;1.20;;;;;;;;;;8303991;28;20558;-64
2023/03/24 21:58:02;;;;;;;7.95;1.50;;;;;;;;;;8301932;28;20029;-64
2023/03/24 22:02:03;;;;;;;6.00;1.58;;;;;;;;;;8301919;28;20555;-64
2023/03/24 22:06:03;;;;;;;2.58;0.98;;;;;;;;;;8304411;28;20042;-63
2023/03/24 22:10:04;;;;;;;3.20;1.08;;;;;;;;;;8303630;28;20726;-64
2023/03/24 22:14:04;;;;;;;4.32;1.20;;;;;;;;;;8304921;28;20486;-63
2023/03/24 22:18:05;;;;;;;2.58;1.08;;;;;;;;;;8302474;28;20041;-64
2023/03/24 22:22:05;;;;;;;3.23;1.30;;;;;;;;;;8303150;28;20044;-64
2023/03/24 22:26:07;;;;;;;4.07;0.90;;;;;;;;;;8304333;28;20286;-64
2023/03/24 22:30:08;;;;;;;5.72;0.90;;;;;;;;;;8305997;28;20460;-64
2023/03/24 22:34:08;;;;;;;5.90;1.00;;;;;;;;;;8309035;28;20039;-64
2023/03/24 22:38:13;;;;;;;2.70;0.82;;;;;;;;;;8309678;28;20494;-64
2023/03/24 22:42:14;;;;;;;4.30;1.25;;;;;;;;;;8309250;28;20375;-64
2023/03/24 22:46:15;;;;;;;4.47;1.02;;;;;;;;;;8308844;28;20048;-64
2023/03/24 22:50:15;;;;;;;4.90;1.08;;;;;;;;;;8307156;28;20277;-64
2023/03/24 22:54:15;;;;;;;5.63;1.15;;;;;;;;;;8307138;28;20534;-64
2023/03/24 22:58:16;;;;;;;4.05;1.10;;;;;;;;;;8307950;28;20265;-64
2023/03/24 23:02:22;;;;;;;4.80;1.05;;;;;;;;;;8309587;28;20041;-64
2023/03/24 23:06:23;;;;;;;3.22;0.95;;;;;;;;;;8307909;28;20068;-65
2023/03/24 23:10:24;;;;;;;4.82;1.20;;;;;;;;;;8307465;28;20029;-64
2023/03/24 23:14:25;;;;;;;2.05;0.88;;;;;;;;;;8308454;28;20056;-64
2023/03/24 23:18:25;;;;;;;2.88;0.98;;;;;;;;;;8306592;28;20690;-64
2023/03/24 23:22:26;;;;;;;2.08;0.80;;;;;;;;;;8306686;28;20400;-64
2023/03/24 23:26:28;;;;;;;0.85;0.50;;;;;;;;;;8308311;28;20342;-64
2023/03/24 23:30:29;;;;;;;1.30;0.65;;;;;;;;;;8307112;28;20150;-64
2023/03/24 23:34:29;;;;;;;2.42;0.57;;;;;;;;;;8306474;28;20064;-63
2023/03/24 23:38:30;;;;;;;0.68;0.60;;;;;;;;;;8309075;28;20478;-64
2023/03/24 23:42:31;;;;;;;2.85;0.60;;;;;;;;;;8300910;28;20144;-64
2023/03/24 23:46:32;;;;;;;1.02;0.70;;;;;;;;;;8302644;28;20068;-64
2023/03/24 23:50:32;;;;;;;3.38;0.75;;;;;;;;;;8306248;28;20017;-64
2023/03/24 23:54:33;;;;;;;3.03;1.05;;;;;;;;;;8308342;28;20076;-63
2023/03/24 23:58:34;;;;;;;1.92;0.80;;;;;;;;;;8311149;28;20025;-64
